Time;durP1;ratioP1;P1;durP2;ratioP2;P2;SDS_P1;SDS_P2;PMS_P1;PMS_P2;Temp;Humidity;BMP_temperature;BMP_pressure;BME280_temperature;BME280_humidity;BME280_pressure;Samples;Min_cycle;Max_cycle;Signal;HPM_P1;HPM_P2
2021/01/15 00:01:08;;;;;;;6.80;2.97;;;-8.20;99.90;;;;;;5072172;28;20629;-72
2021/01/15 00:03:35;;;;;;;5.40;2.17;;;-8.20;99.90;;;;;;5072648;28;20245;-71
2021/01/15 00:06:05;;;;;;;3.27;2.30;;;-8.10;99.90;;;;;;5072618;28;20222;-71
2021/01/15 00:08:33;;;;;;;5.00;2.63;;;-8.10;99.90;;;;;;5072292;28;20182;-70
2021/01/15 00:11:00;;;;;;;4.43;2.20;;;-8.10;99.90;;;;;;5071668;28;20222;-71
2021/01/15 00:13:26;;;;;;;4.00;1.80;;;-8.10;99.90;;;;;;5072126;28;20191;-70
2021/01/15 00:15:53;;;;;;;4.07;2.20;;;-8.10;99.90;;;;;;5072050;28;20191;-71
2021/01/15 00:18:19;;;;;;;4.50;2.00;;;-8.00;99.90;;;;;;5072239;28;20317;-69
2021/01/15 00:20:46;;;;;;;7.63;2.43;;;-8.00;99.90;;;;;;5071733;28;20244;-71
2021/01/15 00:23:16;;;;;;;3.23;2.23;;;-8.00;99.90;;;;;;5071298;28;20234;-72
2021/01/15 00:25:43;;;;;;;2.67;1.87;;;-8.00;99.90;;;;;;5071855;28;20178;-71
2021/01/15 00:28:09;;;;;;;6.17;2.40;;;-8.00;99.90;;;;;;5071472;28;20683;-73
2021/01/15 00:30:36;;;;;;;3.23;2.37;;;-8.00;99.90;;;;;;5071576;28;20252;-70
2021/01/15 00:33:03;;;;;;;8.70;2.97;;;-8.00;99.90;;;;;;5071972;28;20203;-72
2021/01/15 00:35:30;;;;;;;3.87;2.33;;;-8.00;99.90;;;;;;5071867;28;20226;-70
2021/01/15 00:37:57;;;;;;;4.00;2.10;;;-8.00;99.90;;;;;;5071568;28;20212;-68
2021/01/15 00:40:24;;;;;;;2.83;1.63;;;-7.90;99.90;;;;;;5070846;28;20641;-69
2021/01/15 00:42:51;;;;;;;2.03;1.37;;;-7.90;99.90;;;;;;5071385;28;20253;-71
2021/01/15 00:45:17;;;;;;;3.90;2.60;;;-7.80;99.90;;;;;;5071141;28;20237;-70
2021/01/15 00:47:44;;;;;;;3.90;1.93;;;-7.80;99.90;;;;;;5071726;28;20615;-70
2021/01/15 00:50:12;;;;;;;5.63;2.60;;;-7.90;99.90;;;;;;5071161;28;20667;-71
2021/01/15 00:52:38;;;;;;;3.23;1.60;;;-7.80;99.90;;;;;;5071085;28;20269;-69
2021/01/15 00:55:06;;;;;;;3.07;2.00;;;-7.80;99.90;;;;;;5071680;28;20233;-71
2021/01/15 00:57:37;;;;;;;2.30;1.50;;;-7.90;99.90;;;;;;5071217;28;20278;-70
2021/01/15 01:00:07;;;;;;;1.77;1.37;;;-7.80;99.90;;;;;;5072092;28;20234;-69
2021/01/15 01:02:35;;;;;;;4.70;2.83;;;-7.90;99.90;;;;;;5071702;28;20245;-68
2021/01/15 01:05:02;;;;;;;4.40;2.23;;;-7.90;99.90;;;;;;5071607;28;20350;-69
2021/01/15 01:07:28;;;;;;;5.77;3.00;;;-7.90;99.90;;;;;;5071717;28;20202;-69
2021/01/15 01:09:55;;;;;;;4.63;2.67;;;-8.00;99.90;;;;;;5070862;28;20221;-70
2021/01/15 01:12:21;;;;;;;1.87;1.63;;;-8.00;99.90;;;;;;5071335;28;20321;-70
2021/01/15 01:14:48;;;;;;;6.07;2.80;;;-8.00;99.90;;;;;;5071365;28;20233;-71
2021/01/15 01:17:15;;;;;;;4.30;2.13;;;-8.00;99.90;;;;;;5071344;28;20229;-69
2021/01/15 01:19:41;;;;;;;3.13;1.93;;;-8.00;99.90;;;;;;5071594;28;20226;-71
2021/01/15 01:22:08;;;;;;;5.20;2.73;;;-8.00;99.90;;;;;;5071865;28;20264;-72
2021/01/15 01:24:34;;;;;;;2.93;1.93;;;-8.10;99.90;;;;;;5071193;28;20229;-71
2021/01/15 01:27:01;;;;;;;3.00;2.27;;;-8.10;99.90;;;;;;5072570;28;20301;-70
2021/01/15 01:29:27;;;;;;;3.47;1.87;;;-8.00;99.90;;;;;;5074875;28;20195;-71
2021/01/15 01:31:55;;;;;;;5.43;2.93;;;-8.00;99.90;;;;;;5075456;28;20664;-70
2021/01/15 01:34:21;;;;;;;4.77;2.20;;;-7.90;99.90;;;;;;5074968;28;20221;-70
2021/01/15 01:36:48;;;;;;;4.17;2.03;;;-7.90;99.90;;;;;;5074915;28;20252;-68
2021/01/15 01:39:14;;;;;;;7.93;2.97;;;-7.90;99.90;;;;;;5074426;28;20612;-68
2021/01/15 01:41:41;;;;;;;2.45;1.85;;;-7.90;99.90;;;;;;5075051;28;20718;-68
2021/01/15 01:44:07;;;;;;;4.47;2.33;;;-7.80;99.90;;;;;;5062617;28;20442;-69
2021/01/15 01:46:34;;;;;;;4.90;2.77;;;-7.80;99.90;;;;;;5071432;28;20281;-69
2021/01/15 01:49:02;;;;;;;7.17;3.07;;;-7.90;99.90;;;;;;5074918;28;20198;-73
2021/01/15 01:51:31;;;;;;;3.20;1.67;;;-7.90;99.90;;;;;;5074656;28;20233;-73
2021/01/15 01:53:58;;;;;;;4.43;2.10;;;-7.90;99.90;;;;;;5074935;28;20593;-71
2021/01/15 01:56:25;;;;;;;5.57;2.80;;;-7.80;99.90;;;;;;5074336;28;20223;-72
2021/01/15 01:58:53;;;;;;;2.27;1.30;;;-7.80;99.90;;;;;;5074098;28;20721;-69
2021/01/15 02:01:20;;;;;;;2.63;1.70;;;-7.70;99.90;;;;;;5074600;28;20254;-70
2021/01/15 02:03:47;;;;;;;3.27;1.60;;;-7.80;99.90;;;;;;5074592;28;20206;-70
2021/01/15 02:06:15;;;;;;;3.67;2.03;;;-7.90;99.90;;;;;;5074516;28;20219;-69
2021/01/15 02:08:41;;;;;;;4.67;1.83;;;-8.00;99.90;;;;;;5073848;28;20237;-68
2021/01/15 02:11:15;;;;;;;1.90;1.23;;;-8.00;99.90;;;;;;5074241;28;20230;-70
2021/01/15 02:13:51;;;;;;;2.07;1.43;;;-8.00;99.90;;;;;;5074656;28;20214;-69
2021/01/15 02:16:23;;;;;;;1.53;1.20;;;-8.00;99.90;;;;;;5074195;28;20708;-68
2021/01/15 02:18:54;;;;;;;1.20;1.07;;;-8.00;99.90;;;;;;5073759;28;20562;-69
2021/01/15 02:21:43;;;;;;;3.00;1.90;;;-8.00;99.90;;;;;;5074520;28;20194;-69
2021/01/15 02:24:21;;;;;;;3.03;1.77;;;-8.00;99.90;;;;;;5074093;28;20210;-69
2021/01/15 02:27:14;;;;;;;2.17;1.70;;;-8.10;99.90;;;;;;5073524;28;20210;-70
2021/01/15 02:29:51;;;;;;;1.47;1.30;;;-8.20;99.90;;;;;;5074013;28;20214;-72
2021/01/15 02:32:43;;;;;;;3.57;1.90;;;-8.20;99.90;;;;;;5073900;28;20186;-71
2021/01/15 02:35:33;;;;;;;3.17;2.10;;;-8.30;99.90;;;;;;5073813;28;20274;-70
2021/01/15 02:38:16;;;;;;;3.13;1.93;;;-8.30;99.90;;;;;;5073595;28;20215;-68
2021/01/15 02:40:57;;;;;;;2.80;1.93;;;-8.40;99.90;;;;;;5073503;28;20253;-68
2021/01/15 02:43:26;;;;;;;3.87;2.13;;;-8.40;99.90;;;;;;5073394;28;20674;-71
2021/01/15 02:45:53;;;;;;;1.73;1.47;;;-8.50;99.90;;;;;;5073864;28;20651;-70
2021/01/15 02:48:26;;;;;;;1.73;1.63;;;-8.50;99.90;;;;;;5074035;28;20279;-70
2021/01/15 02:50:53;;;;;;;3.33;1.87;;;-8.50;99.90;;;;;;5073886;28;20286;-70
2021/01/15 02:53:20;;;;;;;3.57;1.57;;;-8.50;99.90;;;;;;5073656;28;20179;-70
2021/01/15 02:55:46;;;;;;;1.77;1.47;;;-8.60;99.90;;;;;;5073408;28;20230;-68
2021/01/15 02:58:13;;;;;;;4.50;2.33;;;-8.50;99.90;;;;;;5073352;28;20230;-71
2021/01/15 03:00:41;;;;;;;3.20;1.83;;;-8.60;99.90;;;;;;5072527;28;20226;-71
2021/01/15 03:03:16;;;;;;;1.97;1.77;;;-8.70;99.90;;;;;;5072924;28;20313;-71
2021/01/15 03:05:49;;;;;;;3.63;1.90;;;-8.60;99.90;;;;;;5073677;28;20181;-73
2021/01/15 03:08:18;;;;;;;5.33;1.83;;;-8.60;99.90;;;;;;5073711;28;20272;-68
2021/01/15 03:10:46;;;;;;;2.80;1.77;;;-8.60;99.90;;;;;;5058127;28;20219;-69
2021/01/15 03:13:14;;;;;;;3.93;1.93;;;-8.60;99.90;;;;;;5073589;28;20244;-71
2021/01/15 03:15:42;;;;;;;18.73;4.20;;;-8.60;99.90;;;;;;5073261;28;20647;-68
2021/01/15 03:18:10;;;;;;;2.00;1.37;;;-8.60;99.90;;;;;;5073205;28;20325;-70
2021/01/15 03:20:38;;;;;;;2.00;1.73;;;-8.70;99.90;;;;;;5073053;28;20232;-70
2021/01/15 03:23:05;;;;;;;0.97;0.97;;;-8.70;99.90;;;;;;5073262;28;20318;-71
2021/01/15 03:25:31;;;;;;;1.93;1.70;;;-8.70;99.90;;;;;;5073161;28;20237;-69
2021/01/15 03:27:58;;;;;;;2.33;1.73;;;-8.70;99.90;;;;;;5072739;28;20652;-70
2021/01/15 03:30:27;;;;;;;4.03;1.87;;;-8.70;99.90;;;;;;5072717;28;20620;-68
2021/01/15 03:32:55;;;;;;;3.33;1.60;;;-8.70;99.90;;;;;;5072663;28;20226;-68
2021/01/15 03:35:25;;;;;;;3.67;1.93;;;-8.70;99.90;;;;;;5072972;28;20225;-72
2021/01/15 03:37:55;;;;;;;3.77;2.23;;;-8.70;99.90;;;;;;5072966;28;20199;-69
2021/01/15 03:40:22;;;;;;;3.27;2.00;;;-8.70;99.90;;;;;;5072534;28;20244;-69
2021/01/15 03:42:49;;;;;;;4.37;2.00;;;-8.70;99.90;;;;;;5072930;28;20210;-69
2021/01/15 03:45:16;;;;;;;2.97;1.40;;;-8.70;99.90;;;;;;5072530;28;20237;-68
2021/01/15 03:47:42;;;;;;;4.47;2.00;;;-8.70;99.90;;;;;;5073041;28;20193;-70
2021/01/15 03:50:10;;;;;;;3.00;1.67;;;-8.70;99.90;;;;;;5071844;28;20197;-70
2021/01/15 03:52:36;;;;;;;2.87;1.90;;;-8.70;99.90;;;;;;5072353;28;20195;-69
2021/01/15 03:55:04;;;;;;;6.50;2.10;;;-8.70;99.90;;;;;;5072240;28;20230;-70
2021/01/15 03:57:31;;;;;;;2.13;1.40;;;-8.80;99.90;;;;;;5072179;28;20293;-70
2021/01/15 03:59:57;;;;;;;3.97;2.27;;;-8.70;99.90;;;;;;5071894;28;20278;-68
2021/01/15 04:02:24;;;;;;;4.83;2.00;;;-8.70;99.90;;;;;;5071991;28;20236;-71
2021/01/15 04:04:51;;;;;;;2.40;1.40;;;-8.80;99.90;;;;;;5071996;28;20552;-70
2021/01/15 04:07:18;;;;;;;5.30;2.50;;;-8.70;99.90;;;;;;5072145;28;20233;-69
2021/01/15 04:09:44;;;;;;;2.73;1.80;;;-8.70;99.90;;;;;;5072285;28;20241;-70
2021/01/15 04:12:11;;;;;;;4.03;2.57;;;-8.70;99.90;;;;;;5072448;28;20221;-69
2021/01/15 04:14:41;;;;;;;4.33;2.60;;;-8.70;99.90;;;;;;5072481;28;20243;-70
2021/01/15 04:17:08;;;;;;;2.93;1.67;;;-8.70;99.90;;;;;;5072102;28;20193;-71
2021/01/15 04:19:34;;;;;;;3.13;1.60;;;-8.60;99.90;;;;;;5072037;28;20277;-70
2021/01/15 04:22:01;;;;;;;3.53;2.27;;;-8.60;99.90;;;;;;5071647;28;20629;-70
2021/01/15 04:24:28;;;;;;;2.43;2.03;;;-8.60;99.90;;;;;;5071786;28;20185;-67
2021/01/15 04:26:55;;;;;;;2.20;1.83;;;-8.60;99.90;;;;;;5071357;28;20320;-70
2021/01/15 04:29:22;;;;;;;5.30;2.33;;;-8.50;99.90;;;;;;5071650;28;20186;-70
2021/01/15 04:31:50;;;;;;;1.63;1.40;;;-8.60;99.90;;;;;;5071604;28;20658;-68
2021/01/15 04:34:16;;;;;;;2.27;1.50;;;-8.70;99.90;;;;;;5072293;28;20238;-71
2021/01/15 04:36:43;;;;;;;2.37;1.97;;;-8.70;99.90;;;;;;5071437;28;20683;-70
2021/01/15 04:39:10;;;;;;;7.80;2.53;;;-8.70;99.90;;;;;;5071210;28;20557;-71
2021/01/15 04:41:37;;;;;;;3.27;2.00;;;-8.80;99.90;;;;;;5071524;28;20329;-69
2021/01/15 04:44:04;;;;;;;2.90;1.90;;;-8.80;99.90;;;;;;5071009;28;20261;-69
2021/01/15 04:46:33;;;;;;;2.80;1.73;;;-8.80;99.90;;;;;;5071767;28;20226;-69
2021/01/15 04:49:04;;;;;;;3.33;1.77;;;-8.90;99.90;;;;;;5071771;28;20206;-69
2021/01/15 04:51:36;;;;;;;3.20;1.60;;;-9.00;99.90;;;;;;5071385;28;20193;-68
2021/01/15 04:54:04;;;;;;;2.37;1.67;;;-9.00;99.90;;;;;;5071621;28;20262;-69
2021/01/15 04:56:36;;;;;;;2.90;1.47;;;-9.10;99.90;;;;;;5071208;28;20226;-68
2021/01/15 04:59:04;;;;;;;5.67;2.50;;;-9.10;99.90;;;;;;5071794;28;20193;-68
2021/01/15 05:01:38;;;;;;;5.27;1.40;;;-9.20;99.90;;;;;;5071952;28;20233;-68
2021/01/15 05:04:10;;;;;;;2.20;1.57;;;-9.20;99.90;;;;;;5075476;28;20217;-71
2021/01/15 05:06:45;;;;;;;4.30;1.93;;;-9.20;99.90;;;;;;5075057;28;20718;-70
2021/01/15 05:09:13;;;;;;;2.93;1.87;;;-9.20;99.90;;;;;;5075261;28;20268;-69
2021/01/15 05:11:42;;;;;;;2.93;2.10;;;-9.20;99.90;;;;;;5075598;28;20240;-68
2021/01/15 05:14:09;;;;;;;2.07;1.70;;;-9.20;99.90;;;;;;5075375;28;20181;-69
2021/01/15 05:16:38;;;;;;;5.23;2.43;;;-9.20;99.90;;;;;;5074482;28;20193;-71
2021/01/15 05:19:05;;;;;;;2.27;1.77;;;-9.20;99.90;;;;;;5075435;28;20227;-68
2021/01/15 05:21:33;;;;;;;6.80;2.63;;;-9.20;99.90;;;;;;5075496;28;20604;-69
2021/01/15 05:24:00;;;;;;;2.20;1.90;;;-9.10;99.90;;;;;;5075056;28;20256;-70
2021/01/15 05:26:27;;;;;;;4.83;2.73;;;-9.10;99.90;;;;;;5074868;28;20256;-70
2021/01/15 05:28:53;;;;;;;3.17;2.00;;;-9.10;99.90;;;;;;5075055;28;20229;-70
2021/01/15 05:31:20;;;;;;;5.20;3.23;;;-9.10;99.90;;;;;;5075129;28;20216;-71
2021/01/15 05:34:05;;;;;;;4.33;2.57;;;-9.10;99.90;;;;;;5074890;28;20207;-70
2021/01/15 05:36:34;;;;;;;3.93;2.27;;;-9.10;99.90;;;;;;5075197;28;20183;-69
2021/01/15 05:39:22;;;;;;;3.30;2.07;;;-9.10;99.90;;;;;;5074259;28;20228;-70
2021/01/15 05:41:51;;;;;;;1.87;1.40;;;-9.10;99.90;;;;;;5073505;28;20233;-68
2021/01/15 05:44:28;;;;;;;4.40;2.17;;;-9.10;99.90;;;;;;5074777;28;20286;-70
2021/01/15 05:46:56;;;;;;;4.60;2.80;;;-9.00;99.90;;;;;;5074513;28;20732;-69
2021/01/15 05:49:22;;;;;;;7.30;2.93;;;-9.10;99.90;;;;;;5074864;28;20209;-71
2021/01/15 05:51:50;;;;;;;5.13;2.83;;;-9.10;99.90;;;;;;5075210;28;20201;-68
2021/01/15 05:54:30;;;;;;;6.33;2.57;;;-9.10;99.90;;;;;;5074734;28;20668;-67
2021/01/15 05:56:57;;;;;;;4.20;2.07;;;-9.10;99.90;;;;;;5074353;28;20670;-69
2021/01/15 05:59:24;;;;;;;1.60;1.20;;;-9.10;99.90;;;;;;5074908;28;20234;-67
2021/01/15 06:01:52;;;;;;;2.50;1.90;;;-9.20;99.90;;;;;;5074306;28;20279;-70
2021/01/15 06:04:20;;;;;;;3.20;2.03;;;-9.20;99.90;;;;;;5074699;28;20709;-69
2021/01/15 06:06:47;;;;;;;2.70;1.93;;;-9.10;99.90;;;;;;5074500;28;20352;-69
2021/01/15 06:09:20;;;;;;;7.73;3.00;;;-9.10;99.90;;;;;;5074346;28;20189;-69
2021/01/15 06:11:48;;;;;;;2.77;2.03;;;-9.10;99.90;;;;;;5075050;28;20217;-71
2021/01/15 06:14:22;;;;;;;2.20;1.73;;;-9.10;99.90;;;;;;5075044;28;20284;-70
2021/01/15 06:17:00;;;;;;;3.63;2.13;;;-9.10;99.90;;;;;;5074133;28;20570;-69
2021/01/15 06:19:43;;;;;;;4.77;1.80;;;-9.10;99.90;;;;;;5074419;28;20201;-71
2021/01/15 06:22:27;;;;;;;7.13;3.67;;;-9.10;99.90;;;;;;5074616;28;20191;-68
2021/01/15 06:25:06;;;;;;;3.67;1.73;;;-9.00;99.90;;;;;;5074723;28;20178;-71
2021/01/15 06:27:36;;;;;;;5.03;2.77;;;-9.10;99.90;;;;;;5074536;28;20183;-68
2021/01/15 06:30:06;;;;;;;4.90;2.60;;;-9.10;99.90;;;;;;5075214;28;20630;-69
2021/01/15 06:32:33;;;;;;;3.47;1.57;;;-9.10;99.90;;;;;;5073782;28;20240;-70
2021/01/15 06:34:59;;;;;;;3.20;2.13;;;-9.20;99.90;;;;;;5074641;28;20310;-69
2021/01/15 06:37:26;;;;;;;4.13;1.97;;;-9.20;99.90;;;;;;5074755;28;20201;-71
2021/01/15 06:40:08;;;;;;;6.53;3.03;;;-9.10;99.90;;;;;;5074499;28;20197;-71
2021/01/15 06:42:44;;;;;;;7.07;3.13;;;-9.10;99.90;;;;;;5074233;28;20255;-70
2021/01/15 06:45:15;;;;;;;5.03;2.43;;;-9.00;99.90;;;;;;5074649;28;20272;-72
2021/01/15 06:47:43;;;;;;;4.00;2.73;;;-9.00;99.90;;;;;;5074448;28;20209;-71
2021/01/15 06:50:19;;;;;;;5.27;2.57;;;-8.90;99.90;;;;;;5074064;28;20222;-71
2021/01/15 06:52:49;;;;;;;3.87;2.80;;;-8.90;99.90;;;;;;5074470;28;20193;-70
2021/01/15 06:55:19;;;;;;;2.40;1.97;;;-8.90;99.90;;;;;;5054343;28;20221;-70
2021/01/15 06:57:47;;;;;;;12.03;2.27;;;-8.80;99.90;;;;;;5056907;28;20267;-71
2021/01/15 07:00:16;;;;;;;5.00;2.93;;;-8.80;99.90;;;;;;5073189;28;20194;-74
2021/01/15 07:03:09;;;;;;;8.47;3.77;;;-8.70;99.90;;;;;;5074128;28;20283;-71
2021/01/15 07:05:44;;;;;;;5.23;2.93;;;-8.60;99.90;;;;;;5071324;28;20197;-70
2021/01/15 07:08:12;;;;;;;2.80;1.90;;;-8.60;99.90;;;;;;5073545;28;20622;-69
2021/01/15 07:10:40;;;;;;;4.67;2.30;;;-8.40;99.90;;;;;;5073486;28;20204;-68
2021/01/15 07:13:10;;;;;;;5.13;3.43;;;-8.40;99.90;;;;;;5073560;28;20698;-71
2021/01/15 07:15:41;;;;;;;9.60;3.70;;;-8.40;99.90;;;;;;5073768;28;20305;-68
2021/01/15 07:18:23;;;;;;;5.20;2.93;;;-8.30;99.90;;;;;;5073901;28;20523;-68
2021/01/15 07:20:54;;;;;;;6.60;3.50;;;-8.30;99.90;;;;;;5073569;28;20660;-68
2021/01/15 07:23:39;;;;;;;6.97;2.63;;;-8.20;99.90;;;;;;5073151;28;20225;-70
2021/01/15 07:26:09;;;;;;;5.80;2.10;;;-8.20;99.90;;;;;;5073311;28;20218;-69
2021/01/15 07:28:36;;;;;;;5.10;2.23;;;-8.10;99.90;;;;;;5073539;28;20215;-68
2021/01/15 07:31:05;;;;;;;8.70;3.83;;;-8.10;99.90;;;;;;5073943;28;20241;-67
2021/01/15 07:33:34;;;;;;;5.23;3.13;;;-8.10;99.90;;;;;;5073417;28;20194;-69
2021/01/15 07:36:01;;;;;;;6.20;2.57;;;-8.00;99.90;;;;;;5073052;28;20246;-72
2021/01/15 07:38:27;;;;;;;7.37;3.10;;;-8.10;99.90;;;;;;5073512;28;20223;-71
2021/01/15 07:40:54;;;;;;;7.53;3.93;;;-8.10;99.90;;;;;;5073589;28;20278;-71
2021/01/15 07:43:40;;;;;;;4.73;2.70;;;-8.10;99.90;;;;;;5073325;28;20207;-69
2021/01/15 07:46:06;;;;;;;7.37;3.33;;;-8.00;99.90;;;;;;5073038;28;20194;-68
2021/01/15 07:48:33;;;;;;;6.10;3.80;;;-8.00;99.90;;;;;;5073161;28;20274;-68
2021/01/15 07:50:59;;;;;;;6.60;3.00;;;-7.90;99.90;;;;;;5073750;28;20194;-69
2021/01/15 07:53:28;;;;;;;6.03;3.20;;;-7.90;99.90;;;;;;5073630;28;20628;-69
2021/01/15 07:55:56;;;;;;;7.07;3.03;;;-7.90;99.90;;;;;;5072201;28;20358;-70
2021/01/15 07:58:24;;;;;;;6.17;3.43;;;-7.90;99.90;;;;;;5073052;28;20218;-71
2021/01/15 08:00:52;;;;;;;6.27;3.40;;;-7.90;99.90;;;;;;5071984;28;20262;-68
2021/01/15 08:03:19;;;;;;;4.63;2.67;;;-7.90;99.90;;;;;;5072500;28;20309;-71
2021/01/15 08:05:46;;;;;;;7.27;3.60;;;-7.80;99.90;;;;;;5073398;28;20544;-68
2021/01/15 08:08:19;;;;;;;6.80;2.43;;;-7.80;99.90;;;;;;5073130;28;20186;-68
2021/01/15 08:10:48;;;;;;;7.23;2.87;;;-7.80;99.90;;;;;;5073056;28;20194;-69
2021/01/15 08:13:23;;;;;;;9.47;3.90;;;-7.90;99.90;;;;;;5073206;28;20620;-69
2021/01/15 08:15:51;;;;;;;7.07;3.37;;;-7.90;99.90;;;;;;5072333;28;20283;-69
2021/01/15 08:18:18;;;;;;;5.07;3.33;;;-7.80;99.90;;;;;;5073855;28;20207;-71
2021/01/15 08:20:49;;;;;;;6.07;3.50;;;-7.90;99.90;;;;;;5072454;28;20218;-69
2021/01/15 08:23:21;;;;;;;5.27;3.20;;;-7.90;99.90;;;;;;5074805;28;20272;-70
2021/01/15 08:25:49;;;;;;;5.43;3.20;;;-8.00;99.90;;;;;;5075218;28;20190;-70
2021/01/15 08:28:15;;;;;;;4.50;2.93;;;-8.00;99.90;;;;;;5075337;28;20606;-69
2021/01/15 08:30:57;;;;;;;6.17;3.63;;;-8.00;99.90;;;;;;5076323;28;20244;-70
2021/01/15 08:33:24;;;;;;;6.00;3.57;;;-7.90;99.90;;;;;;5076255;28;20215;-70
2021/01/15 08:35:53;;;;;;;5.87;3.50;;;-7.90;99.90;;;;;;5076277;28;20199;-70
2021/01/15 08:38:31;;;;;;;5.70;3.10;;;-7.90;99.90;;;;;;5075852;28;20190;-69
2021/01/15 08:40:59;;;;;;;4.57;2.67;;;-7.80;99.90;;;;;;5076214;28;20190;-68
2021/01/15 08:43:26;;;;;;;4.97;3.10;;;-7.80;99.90;;;;;;5076079;28;20740;-67
2021/01/15 08:45:53;;;;;;;4.87;3.07;;;-7.80;99.90;;;;;;5074810;28;20206;-69
2021/01/15 08:48:21;;;;;;;3.80;2.53;;;-7.80;99.90;;;;;;5074243;28;20256;-69
2021/01/15 08:50:49;;;;;;;6.20;3.40;;;-7.80;99.90;;;;;;5073793;28;20688;-67
2021/01/15 08:53:23;;;;;;;4.67;2.67;;;-7.80;99.90;;;;;;5072190;28;20615;-69
2021/01/15 08:55:50;;;;;;;6.00;3.40;;;-7.90;99.90;;;;;;5071489;28;20187;-72
2021/01/15 08:58:17;;;;;;;3.30;2.07;;;-7.90;99.90;;;;;;5070836;28;20298;-71
2021/01/15 09:00:44;;;;;;;3.80;2.17;;;-7.90;99.90;;;;;;5071113;28;20226;-70
2021/01/15 09:03:18;;;;;;;4.10;2.90;;;-7.90;99.90;;;;;;5072472;28;20637;-69
2021/01/15 09:05:47;;;;;;;7.33;3.73;;;-7.90;99.90;;;;;;5071789;28;20182;-71
2021/01/15 09:08:17;;;;;;;3.83;2.50;;;-7.90;99.90;;;;;;5071757;28;20191;-69
2021/01/15 09:10:48;;;;;;;5.40;2.60;;;-8.00;99.90;;;;;;5071177;28;20182;-70
2021/01/15 09:13:16;;;;;;;3.97;2.77;;;-7.90;99.90;;;;;;5071706;28;20215;-71
2021/01/15 09:15:42;;;;;;;4.90;2.87;;;-7.90;99.90;;;;;;5072044;28;20198;-72
2021/01/15 09:18:09;;;;;;;5.33;2.30;;;-8.00;99.90;;;;;;5069878;28;20201;-71
2021/01/15 09:20:36;;;;;;;4.93;2.83;;;-7.90;99.90;;;;;;5071446;28;20195;-68
2021/01/15 09:23:04;;;;;;;6.57;3.20;;;-7.80;99.90;;;;;;5070048;28;20312;-70
2021/01/15 09:25:30;;;;;;;5.17;3.27;;;-7.80;99.90;;;;;;5071511;28;20676;-70
2021/01/15 09:27:57;;;;;;;5.90;2.90;;;-7.70;99.90;;;;;;5070997;28;20230;-72
2021/01/15 09:30:24;;;;;;;6.17;3.33;;;-7.70;99.90;;;;;;5071622;28;20199;-70
2021/01/15 09:32:51;;;;;;;5.50;2.97;;;-7.70;99.90;;;;;;5071517;28;20202;-70
2021/01/15 09:35:18;;;;;;;3.17;1.87;;;-7.70;99.90;;;;;;5070246;28;20222;-70
2021/01/15 09:37:44;;;;;;;4.87;3.03;;;-7.70;99.90;;;;;;5070859;28;20198;-68
2021/01/15 09:40:12;;;;;;;3.67;2.33;;;-7.80;99.90;;;;;;5071123;28;20245;-69
2021/01/15 09:42:39;;;;;;;3.07;1.87;;;-7.80;99.90;;;;;;5071572;28;20195;-70
2021/01/15 09:45:07;;;;;;;8.17;2.87;;;-7.60;99.90;;;;;;5071461;28;20234;-69
2021/01/15 09:47:34;;;;;;;4.63;2.63;;;-7.60;99.90;;;;;;5071718;28;20698;-68
2021/01/15 09:50:01;;;;;;;3.27;1.90;;;-7.70;99.90;;;;;;5075091;28;20648;-68
2021/01/15 09:52:27;;;;;;;5.50;2.67;;;-7.70;99.90;;;;;;5074881;28;20632;-72
2021/01/15 09:54:54;;;;;;;7.43;2.93;;;-7.80;99.90;;;;;;5073959;28;20187;-70
2021/01/15 09:57:21;;;;;;;4.37;2.13;;;-7.70;99.90;;;;;;5074692;28;20616;-68
2021/01/15 09:59:47;;;;;;;3.87;2.30;;;-7.60;99.90;;;;;;5074707;28;20309;-71
2021/01/15 10:02:14;;;;;;;5.70;3.10;;;-7.60;99.90;;;;;;5074553;28;20266;-70
2021/01/15 10:04:40;;;;;;;2.73;1.40;;;-7.70;99.90;;;;;;5074656;28;20240;-73
2021/01/15 10:07:10;;;;;;;2.23;1.70;;;-7.80;99.90;;;;;;5074359;28;20193;-72
2021/01/15 10:09:37;;;;;;;3.97;2.53;;;-7.80;99.90;;;;;;5074575;28;20277;-68
2021/01/15 10:12:04;;;;;;;2.97;2.07;;;-7.80;99.90;;;;;;5074741;28;20562;-72
2021/01/15 10:14:31;;;;;;;6.27;2.77;;;-7.80;99.90;;;;;;5069842;28;20201;-72
2021/01/15 10:16:58;;;;;;;3.20;2.57;;;-7.70;99.90;;;;;;5071925;28;20223;-70
2021/01/15 10:19:24;;;;;;;5.13;2.70;;;-7.80;99.90;;;;;;5073572;28;20627;-68
2021/01/15 10:21:52;;;;;;;3.20;2.20;;;-7.70;99.90;;;;;;5060783;28;20240;-71
2021/01/15 10:24:19;;;;;;;5.20;2.73;;;-7.60;99.90;;;;;;5074695;28;20242;-71
2021/01/15 10:26:45;;;;;;;6.37;3.00;;;-7.60;99.90;;;;;;5072411;28;20234;-71
2021/01/15 10:29:14;;;;;;;6.53;2.80;;;-7.50;99.90;;;;;;5074100;28;20233;-69
2021/01/15 10:31:44;;;;;;;6.00;2.87;;;-7.40;99.90;;;;;;5074317;28;20221;-68
2021/01/15 10:34:11;;;;;;;6.37;3.13;;;-7.20;99.90;;;;;;5072629;28;20183;-71
2021/01/15 10:36:40;;;;;;;3.97;2.13;;;-7.20;99.90;;;;;;5073229;28;20198;-69
2021/01/15 10:39:07;;;;;;;5.90;2.90;;;-7.20;99.90;;;;;;5072712;28;20680;-71
2021/01/15 10:41:35;;;;;;;5.73;2.97;;;-7.20;99.90;;;;;;5074049;28;20645;-73
2021/01/15 10:44:03;;;;;;;3.53;2.47;;;-7.10;99.90;;;;;;5074114;28;20668;-70
2021/01/15 10:46:33;;;;;;;5.87;3.17;;;-7.10;99.90;;;;;;5073702;28;20241;-74
2021/01/15 10:49:01;;;;;;;5.87;3.37;;;-7.10;99.90;;;;;;5072219;28;20215;-70
2021/01/15 10:51:27;;;;;;;5.70;3.10;;;-7.00;99.90;;;;;;5074151;28;20239;-69
2021/01/15 10:53:54;;;;;;;6.50;3.00;;;-6.80;99.90;;;;;;5073914;28;20190;-69
2021/01/15 10:56:21;;;;;;;5.77;3.17;;;-6.80;99.90;;;;;;5073983;28;20711;-69
2021/01/15 10:58:47;;;;;;;5.97;3.30;;;-6.90;99.90;;;;;;5073462;28;20232;-68
2021/01/15 11:01:14;;;;;;;7.60;3.43;;;-6.90;99.90;;;;;;5083632;28;20543;-71
2021/01/15 11:03:41;;;;;;;7.33;3.67;;;-6.80;99.90;;;;;;5073591;28;20284;-71
2021/01/15 11:06:09;;;;;;;8.33;4.10;;;-6.70;99.90;;;;;;5074067;28;20208;-70
2021/01/15 11:08:36;;;;;;;5.80;3.37;;;-6.60;99.90;;;;;;5073785;28;20222;-69
2021/01/15 11:11:05;;;;;;;6.57;3.43;;;-6.60;99.90;;;;;;5073423;28;20240;-69
2021/01/15 11:13:32;;;;;;;7.23;3.80;;;-6.40;99.90;;;;;;5073924;28;20244;-69
2021/01/15 11:15:58;;;;;;;10.17;4.53;;;-6.20;99.90;;;;;;5073281;28;20197;-70
2021/01/15 11:18:25;;;;;;;5.30;2.80;;;-6.10;99.90;;;;;;5073809;28;20234;-68
2021/01/15 11:20:51;;;;;;;6.43;3.40;;;-6.30;99.90;;;;;;5073208;28;20194;-72
2021/01/15 11:23:18;;;;;;;5.77;3.20;;;-6.20;99.90;;;;;;5073286;28;20763;-73
2021/01/15 11:25:45;;;;;;;6.53;3.00;;;-6.40;99.90;;;;;;5073744;28;20257;-71
2021/01/15 11:28:11;;;;;;;4.73;3.00;;;-6.60;99.90;;;;;;5073441;28;20234;-71
2021/01/15 11:30:38;;;;;;;8.37;4.23;;;-6.50;99.90;;;;;;5073983;28;20302;-70
2021/01/15 11:33:05;;;;;;;7.40;3.57;;;-6.50;99.90;;;;;;5073572;28;20604;-71
2021/01/15 11:35:31;;;;;;;5.10;3.30;;;-6.50;99.90;;;;;;5073412;28;20284;-70
2021/01/15 11:37:58;;;;;;;6.83;3.20;;;-6.40;99.90;;;;;;5072887;28;20202;-73
2021/01/15 11:40:26;;;;;;;6.10;3.07;;;-6.20;99.90;;;;;;5073285;28;20281;-71
2021/01/15 11:42:56;;;;;;;6.67;3.63;;;-6.20;99.90;;;;;;5072868;28;20187;-70
2021/01/15 11:45:23;;;;;;;4.93;2.53;;;-6.20;99.90;;;;;;5073264;28;20201;-70
2021/01/15 11:47:54;;;;;;;3.07;1.77;;;-6.40;99.90;;;;;;5073270;28;20206;-72
2021/01/15 11:50:21;;;;;;;2.00;1.57;;;-6.50;99.90;;;;;;5073157;28;20233;-71
2021/01/15 11:52:52;;;;;;;8.23;3.60;;;-6.60;99.90;;;;;;5073029;28;20196;-71
2021/01/15 11:55:19;;;;;;;8.70;3.93;;;-6.70;99.90;;;;;;5073031;28;20335;-70
2021/01/15 11:57:50;;;;;;;5.97;3.13;;;-6.60;99.90;;;;;;5072391;28;20623;-75
2021/01/15 12:00:17;;;;;;;7.23;2.57;;;-6.50;99.90;;;;;;5073205;28;20224;-71
2021/01/15 12:02:43;;;;;;;5.30;2.93;;;-6.60;99.90;;;;;;5073143;28;20280;-70
2021/01/15 12:05:11;;;;;;;9.23;3.43;;;-6.90;99.90;;;;;;5071071;28;20676;-69
2021/01/15 12:07:38;;;;;;;3.47;2.20;;;-7.10;99.90;;;;;;5072355;28;20191;-71
2021/01/15 12:10:06;;;;;;;4.63;2.67;;;-7.20;99.90;;;;;;5071940;28;20620;-71
2021/01/15 12:12:36;;;;;;;5.47;2.70;;;-7.10;99.90;;;;;;5072660;28;20183;-70
2021/01/15 12:15:06;;;;;;;5.73;3.00;;;-7.20;99.90;;;;;;5072830;28;20200;-69
2021/01/15 12:17:33;;;;;;;4.17;2.30;;;-7.10;99.90;;;;;;5072489;28;20196;-70
2021/01/15 12:20:00;;;;;;;3.53;2.90;;;-6.90;99.90;;;;;;5071646;28;20202;-70
2021/01/15 12:22:27;;;;;;;6.53;3.50;;;-6.80;99.90;;;;;;5071880;28;20191;-71
2021/01/15 12:24:53;;;;;;;4.50;2.10;;;-6.60;99.90;;;;;;5071909;28;20224;-71
2021/01/15 12:27:20;;;;;;;6.03;3.13;;;-6.80;99.90;;;;;;5072167;28;20224;-71
2021/01/15 12:29:46;;;;;;;7.47;3.07;;;-6.90;99.90;;;;;;5072097;28;20285;-70
2021/01/15 12:32:13;;;;;;;5.80;2.77;;;-6.90;99.90;;;;;;5071428;28;20227;-69
2021/01/15 12:34:40;;;;;;;5.27;2.00;;;-7.00;99.90;;;;;;5071814;28;20202;-69
2021/01/15 12:37:06;;;;;;;4.33;2.53;;;-7.10;99.90;;;;;;5071550;28;20268;-67
2021/01/15 12:39:32;;;;;;;4.73;2.90;;;-7.10;99.90;;;;;;5071870;28;20277;-67
2021/01/15 12:41:59;;;;;;;5.80;2.20;;;-7.10;99.90;;;;;;5071004;28;20191;-67
2021/01/15 12:44:25;;;;;;;5.03;2.60;;;-7.10;99.90;;;;;;5071570;28;20235;-69
2021/01/15 12:46:52;;;;;;;5.20;2.90;;;-7.00;99.90;;;;;;5071448;28;20281;-68
2021/01/15 12:49:19;;;;;;;2.37;1.90;;;-7.10;99.90;;;;;;5071869;28;20200;-70
2021/01/15 12:51:46;;;;;;;6.00;1.80;;;-7.00;99.90;;;;;;5072264;28;20237;-70
2021/01/15 12:54:12;;;;;;;3.67;2.30;;;-6.90;99.90;;;;;;5071737;28;20648;-69